Tustin, California
Current Conditions -  °F | °C
As of 6:53 PM on Saturday 24 Jan 2015 (Local Time) from KSNA Reporting Station
Clear Clear  
Wind Chill: 74°   Ceiling: Unl
Heat Index: 74°   Visibility: 10mi
Dew Point: 19°   Wind: 9mph
Humidity: 13%   Direction: 20°NNE
Pressure: 29.99"   Gusts: NA
Location:  33.74°N, 117.81°W
Report Text: KSNA 250253Z 02008KT 10SM CLR 23/M07 A2999 RMK AO2 SLP154 T02331072 53002 $
Loading
Personal Weather Stations






























Interactive Weather Map New forecast layout! Learn more

10-Day Weather Forecast

Advertisements
Track Severe Weather on mobile